This is the latest recevied weather packets stored in our database for station/object KI4HRG. If no packets are shown the sender has not sent any weather packets the latest 10 day(s).
| Time | Temp. | Humidity | Pressure | Rain* | Wind** | Luminosity | Snow |
|---|---|---|---|---|---|---|---|
| 1787513383 | 33.33° C | 57% | 1015.1 hPa | 0 mm | - | 155 W/m² | - |
| 1787513079 | 32.22° C | 59% | 1015.2 hPa | 0 mm | - | 307 W/m² | - |
| 1787512775 | 32.78° C | 59% | 1015.2 hPa | 0 mm | - | 138 W/m² | - |
| 1787512471 | 33.33° C | 58% | 1015.3 hPa | 0 mm | - | 174 W/m² | - |
| 1787512166 | 33.89° C | 55% | 1015.2 hPa | 0 mm | - | 695 W/m² | - |
| 1787511861 | 33.33° C | 57% | 1015.2 hPa | 0 mm | - | 671 W/m² | - |
| 1787511561 | 33.89° C | 57% | 1015.4 hPa | 0 mm | - | 660 W/m² | - |
| 1787511260 | 33.33° C | 56% | 1015.6 hPa | 0 mm | - | 725 W/m² | - |
| 1787510959 | 32.78° C | 59% | 1015.5 hPa | 0 mm | - | 188 W/m² | - |
| 1787510649 | 33.33° C | 58% | 1015.6 hPa | 0 mm | - | 208 W/m² | - |
| 1787510345 | 32.78° C | 60% | 1015.6 hPa | 0 mm | - | 741 W/m² | - |
| 1787510041 | 33.33° C | 60% | 1015.7 hPa | 0 mm | - | 211 W/m² | - |
| 1787509736 | 33.33° C | 60% | 1015.6 hPa | 0 mm | - | 154 W/m² | - |
| 1787509433 | 32.78° C | 60% | 1015.7 hPa | 0 mm | - | 671 W/m² | - |
| 1787509128 | 33.33° C | 60% | 1016 hPa | 0 mm | - | 704 W/m² | - |
| 1787508823 | 32.78° C | 62% | 1015.8 hPa | 0 mm | - | 731 W/m² | - |
| 1787508518 | 32.78° C | 61% | 1015.8 hPa | 0 mm | - | 756 W/m² | - |
| 1787508215 | 32.22° C | 63% | 1016 hPa | 0 mm | - | 760 W/m² | - |
| 1787507910 | 32.78° C | 62% | 1016.2 hPa | 0 mm | - | 173 W/m² | - |
| 1787507607 | 33.33° C | 61% | 1016.2 hPa | 0 mm | - | 806 W/m² | - |
| 1787507302 | 32.78° C | 64% | 1016.4 hPa | 0 mm | - | 240 W/m² | - |
| 1787506998 | 32.78° C | 65% | 1016.3 hPa | 0 mm | - | 693 W/m² | - |
| 1787506694 | 32.78° C | 63% | 1016.5 hPa | 0 mm | - | 698 W/m² | - |
| 1787506390 | 33.33° C | 64% | 1016.3 hPa | 0 mm | - | 322 W/m² | - |
| 1787506085 | 32.78° C | 65% | 1016.3 hPa | 0 mm | - | 638 W/m² | - |
* Rain latest hour (hover to see other rain measurements)
** Current wind speed in m/s (hover to see current wind gust speed)